createdAt,value
2019-05-03T00:01:33.146Z,68.63
2019-05-03T00:03:59.473Z,69.02
2019-05-03T00:06:25.794Z,69.38
2019-05-03T00:08:52.219Z,69.42
2019-05-03T00:11:18.450Z,69.47
2019-05-03T00:13:44.677Z,69.60
2019-05-03T00:16:25.037Z,69.88
2019-05-03T00:18:52.706Z,70.29
2019-05-03T00:21:19.036Z,70.07
2019-05-03T00:23:45.145Z,70.29
2019-05-03T00:26:12.018Z,70.26
2019-05-03T00:28:38.332Z,70.19
2019-05-03T00:31:04.785Z,70.35
2019-05-03T00:33:31.786Z,70.48
2019-05-03T00:36:09.301Z,70.41
2019-05-03T00:38:35.680Z,70.42
2019-05-03T00:41:01.918Z,70.10
2019-05-03T00:43:28.406Z,70.04
2019-05-03T00:45:54.587Z,70.31
2019-05-03T00:48:21.930Z,69.94
2019-05-03T00:50:48.372Z,70.15
2019-05-03T00:53:14.742Z,70.13
2019-05-03T00:55:41.991Z,70.05
2019-05-03T00:58:08.290Z,70.35
2019-05-03T01:00:34.753Z,70.16
2019-05-03T01:03:02.186Z,69.89
2019-05-03T01:05:28.560Z,69.80
2019-05-03T01:07:54.806Z,69.81
2019-05-03T01:10:22.592Z,70.00
2019-05-03T01:12:49.072Z,69.82
2019-05-03T01:15:17.463Z,69.86
2019-05-03T01:17:43.724Z,69.80
2019-05-03T01:20:11.845Z,69.51
2019-05-03T01:22:38.151Z,69.74
2019-05-03T01:25:05.876Z,69.90
2019-05-03T01:27:32.754Z,70.00
2019-05-03T01:30:00.152Z,70.18
2019-05-03T01:32:26.379Z,70.15
2019-05-03T01:34:52.678Z,70.07
2019-05-03T01:37:18.800Z,69.37
2019-05-03T01:39:45.142Z,68.97
2019-05-03T01:42:11.946Z,69.01
2019-05-03T01:44:38.307Z,69.11
2019-05-03T01:47:06.405Z,69.29
2019-05-03T01:49:42.579Z,69.57
2019-05-03T01:52:12.680Z,69.68
2019-05-03T01:54:38.936Z,69.44
2019-05-03T01:57:05.435Z,69.92
2019-05-03T01:59:32.658Z,69.74
2019-05-03T02:02:13.128Z,69.72
2019-05-03T02:04:44.325Z,69.71
2019-05-03T02:07:11.749Z,69.82
2019-05-03T02:09:38.122Z,69.57
2019-05-03T02:12:04.583Z,69.89
2019-05-03T02:14:31.745Z,70.15
2019-05-03T02:16:58.131Z,70.16
2019-05-03T02:19:24.482Z,70.25
2019-05-03T02:21:52.361Z,70.37
2019-05-03T02:24:21.961Z,70.33
2019-05-03T02:26:47.987Z,70.72
2019-05-03T02:29:14.220Z,70.50
2019-05-03T02:31:43.354Z,70.82
2019-05-03T02:34:08.496Z,71.37
2019-05-03T02:36:34.931Z,71.25
2019-05-03T02:39:02.847Z,71.27
2019-05-03T02:41:31.317Z,71.45
2019-05-03T02:43:58.898Z,71.40
2019-05-03T02:46:32.789Z,71.66
2019-05-03T02:49:09.558Z,71.99
2019-05-03T02:51:36.126Z,72.21
2019-05-03T02:54:05.412Z,71.92
2019-05-03T02:56:30.665Z,71.84
2019-05-03T02:58:56.789Z,72.05
2019-05-03T03:01:26.378Z,72.18
2019-05-03T03:03:52.268Z,72.45
2019-05-03T03:06:18.809Z,72.22
2019-05-03T03:08:48.185Z,72.39
2019-05-03T03:11:16.707Z,72.60
2019-05-03T03:13:45.742Z,72.31
2019-05-03T03:16:12.487Z,73.21
2019-05-03T03:18:39.492Z,73.21
2019-05-03T03:21:10.568Z,73.54
2019-05-03T03:23:57.409Z,73.58
2019-05-03T03:26:37.155Z,73.99
2019-05-03T03:29:02.046Z,74.11
2019-05-03T03:31:32.074Z,74.36
2019-05-03T03:34:07.782Z,74.30
2019-05-03T03:36:50.337Z,74.35
2019-05-03T03:39:06.023Z,74.42
2019-05-03T03:41:32.691Z,74.70
2019-05-03T03:44:01.594Z,74.64
2019-05-03T03:46:32.241Z,73.97
2019-05-03T03:49:00.340Z,74.08
2019-05-03T03:51:29.815Z,73.82
2019-05-03T03:53:58.134Z,73.91
2019-05-03T03:56:28.174Z,73.94
2019-05-03T03:58:55.600Z,73.76
2019-05-03T04:01:22.069Z,73.72
2019-05-03T04:03:48.270Z,73.80
2019-05-03T04:06:15.555Z,73.94
2019-05-03T04:08:41.944Z,73.74
2019-05-03T04:11:08.196Z,73.77
2019-05-03T04:13:36.338Z,73.58
2019-05-03T04:16:25.732Z,73.34
2019-05-03T04:19:01.984Z,73.37
2019-05-03T04:21:28.432Z,73.58
2019-05-03T04:23:55.674Z,73.93
2019-05-03T04:26:22.372Z,73.97
2019-05-03T04:28:48.685Z,74.03
2019-05-03T04:31:15.405Z,74.10
2019-05-03T04:33:41.635Z,73.87
2019-05-03T04:36:07.938Z,74.30
2019-05-03T04:38:35.406Z,74.81
2019-05-03T04:41:02.147Z,74.68
2019-05-03T04:43:28.313Z,74.91
2019-05-03T04:46:02.476Z,75.02
2019-05-03T04:48:29.702Z,75.36
2019-05-03T04:50:55.976Z,75.84
2019-05-03T04:53:22.211Z,75.27
2019-05-03T04:55:48.328Z,75.85
2019-05-03T04:58:16.147Z,75.86
2019-05-03T05:00:46.285Z,75.77
2019-05-03T05:03:11.671Z,76.03
2019-05-03T05:05:37.859Z,76.03
2019-05-03T05:08:05.857Z,76.05
2019-05-03T05:10:32.155Z,76.08
2019-05-03T05:12:58.316Z,76.24
2019-05-03T05:15:26.464Z,76.37
2019-05-03T05:17:57.488Z,76.62
2019-05-03T05:20:28.059Z,76.92
2019-05-03T05:22:54.443Z,76.37
2019-05-03T05:25:22.531Z,76.04
2019-05-03T05:27:59.466Z,75.95
2019-05-03T05:30:25.692Z,76.48
2019-05-03T05:32:51.900Z,76.74
2019-05-03T05:35:18.338Z,76.85
2019-05-03T05:37:44.717Z,77.28
2019-05-03T05:40:11.238Z,77.02
2019-05-03T05:42:37.512Z,76.67
2019-05-03T05:45:05.763Z,76.60
2019-05-03T05:47:36.788Z,76.16
2019-05-03T05:50:06.788Z,76.25
2019-05-03T05:52:34.647Z,76.71
2019-05-03T05:55:21.202Z,76.33
2019-05-03T05:58:02.951Z,76.30
2019-05-03T06:00:25.938Z,75.91
2019-05-03T06:02:52.102Z,75.63
2019-05-03T06:05:18.288Z,75.91
2019-05-03T06:07:55.033Z,75.93
2019-05-03T06:10:25.870Z,76.18
2019-05-03T06:12:56.863Z,75.98
2019-05-03T06:15:35.473Z,75.76
2019-05-03T06:18:09.324Z,76.09
2019-05-03T06:20:37.419Z,75.83
2019-05-03T06:23:05.634Z,75.44
2019-05-03T06:25:35.344Z,75.70
2019-05-03T06:28:16.973Z,75.71
2019-05-03T06:30:45.743Z,75.84
2019-05-03T06:33:14.397Z,75.23
2019-05-03T06:35:40.702Z,75.82
2019-05-03T06:38:06.950Z,75.68
2019-05-03T06:40:35.256Z,75.70
2019-05-03T06:43:08.676Z,75.99
2019-05-03T06:45:29.518Z,76.21
2019-05-03T06:47:55.756Z,75.44
2019-05-03T06:50:27.259Z,74.37
2019-05-03T06:52:50.134Z,73.98
2019-05-03T06:55:16.395Z,73.51
2019-05-03T06:57:49.057Z,72.85
2019-05-03T07:00:31.628Z,71.94
2019-05-03T07:03:05.810Z,72.42
2019-05-03T07:05:36.940Z,72.80
2019-05-03T07:08:05.268Z,72.62
2019-05-03T07:10:35.119Z,72.67
2019-05-03T07:13:08.608Z,72.71
2019-05-03T07:15:35.117Z,73.09
2019-05-03T07:18:01.486Z,73.43
2019-05-03T07:20:27.654Z,73.29
2019-05-03T07:22:55.728Z,72.80
2019-05-03T07:25:22.506Z,72.52
2019-05-03T07:27:48.764Z,71.96
2019-05-03T07:30:15.683Z,72.47
2019-05-03T07:32:44.871Z,72.51
2019-05-03T07:35:11.413Z,71.69
2019-05-03T07:37:37.591Z,71.84
2019-05-03T07:40:06.912Z,71.97
2019-05-03T07:42:34.730Z,72.40
2019-05-03T07:45:00.866Z,72.62
2019-05-03T07:47:27.209Z,72.29
2019-05-03T07:49:54.683Z,71.45
2019-05-03T07:52:21.063Z,71.08
2019-05-03T07:54:47.234Z,71.27
2019-05-03T07:57:25.519Z,71.35
2019-05-03T07:59:51.803Z,70.47
2019-05-03T08:02:18.537Z,69.91
2019-05-03T08:04:44.648Z,70.47
2019-05-03T08:07:22.093Z,70.64
2019-05-03T08:09:38.863Z,70.90
2019-05-03T08:12:05.317Z,71.05
2019-05-03T08:14:31.540Z,70.89
2019-05-03T08:16:57.725Z,70.74
2019-05-03T08:19:26.846Z,70.64
2019-05-03T08:21:52.165Z,70.86
2019-05-03T08:24:18.346Z,71.07
2019-05-03T08:26:45.306Z,71.20
2019-05-03T08:29:16.169Z,70.64
2019-05-03T08:31:41.714Z,70.89
2019-05-03T08:34:15.669Z,70.75
2019-05-03T08:36:55.899Z,70.26
2019-05-03T08:39:25.262Z,69.81
2019-05-03T08:41:58.851Z,68.80
2019-05-03T08:44:25.971Z,68.61
2019-05-03T08:46:52.312Z,68.92
2019-05-03T08:49:18.576Z,68.97
2019-05-03T08:51:44.807Z,68.41
2019-05-03T08:54:10.967Z,67.83
2019-05-03T08:56:37.144Z,68.36
2019-05-03T08:59:04.650Z,68.66
2019-05-03T09:01:30.999Z,68.44
2019-05-03T09:03:57.174Z,68.25
2019-05-03T09:06:24.807Z,68.92
2019-05-03T09:08:54.231Z,68.70
2019-05-03T09:11:30.738Z,67.88
2019-05-03T09:13:52.395Z,67.58
2019-05-03T09:16:18.615Z,67.75
2019-05-03T09:18:45.512Z,68.30
2019-05-03T09:21:11.800Z,68.51
2019-05-03T09:23:37.961Z,68.01
2019-05-03T09:26:04.704Z,68.10
2019-05-03T09:28:30.946Z,67.77
2019-05-03T09:30:57.175Z,67.33
2019-05-03T09:33:24.902Z,67.56
2019-05-03T09:35:51.256Z,67.92
2019-05-03T09:38:17.409Z,67.37
2019-05-03T09:40:45.384Z,66.92
2019-05-03T09:43:11.648Z,67.10
2019-05-03T09:45:37.842Z,67.48
2019-05-03T09:48:05.668Z,67.24
2019-05-03T09:50:32.132Z,67.08
2019-05-03T09:52:58.373Z,67.29
2019-05-03T09:55:26.496Z,66.65
2019-05-03T09:57:52.640Z,66.50
2019-05-03T10:00:19.153Z,66.60
2019-05-03T10:02:45.359Z,67.11
2019-05-03T10:05:12.482Z,66.86
2019-05-03T10:07:38.748Z,66.77
2019-05-03T10:10:07.360Z,66.91
2019-05-03T10:12:33.534Z,66.96
2019-05-03T10:14:59.834Z,66.27
2019-05-03T10:17:35.118Z,66.53
2019-05-03T10:20:04.693Z,65.82
2019-05-03T10:22:30.850Z,65.74
2019-05-03T10:24:57.183Z,65.28
2019-05-03T10:27:25.149Z,64.63
2019-05-03T10:29:51.505Z,63.74
2019-05-03T10:32:28.380Z,64.39
2019-05-03T10:34:57.520Z,64.90
2019-05-03T10:37:31.012Z,64.18
2019-05-03T10:39:58.957Z,63.12
2019-05-03T10:42:25.067Z,63.92
2019-05-03T10:44:51.296Z,62.48
2019-05-03T10:47:17.483Z,62.65
2019-05-03T10:49:45.689Z,63.15
2019-05-03T10:52:12.018Z,62.41
2019-05-03T10:54:38.445Z,61.93
2019-05-03T10:57:06.479Z,61.14
2019-05-03T10:59:32.683Z,61.63
2019-05-03T11:02:06.463Z,62.23
2019-05-03T11:04:33.688Z,61.95
2019-05-03T11:07:00.789Z,61.10
2019-05-03T11:09:27.002Z,61.18
2019-05-03T11:11:55.326Z,58.54
2019-05-03T11:14:21.304Z,56.62
2019-05-03T11:16:47.611Z,56.71
2019-05-03T11:19:14.680Z,55.89
2019-05-03T11:21:41.525Z,56.78
2019-05-03T11:24:07.845Z,57.50
2019-05-03T11:26:34.987Z,57.44
2019-05-03T11:29:04.995Z,56.77
2019-05-03T11:31:44.823Z,55.68
2019-05-03T11:34:15.564Z,55.63
2019-05-03T11:36:45.417Z,55.56
2019-05-03T11:39:11.862Z,56.05
2019-05-03T11:41:40.065Z,56.33
2019-05-03T11:44:24.791Z,56.57
2019-05-03T11:46:51.123Z,56.93
2019-05-03T11:49:17.346Z,56.26
2019-05-03T11:51:44.680Z,55.42
2019-05-03T11:54:10.931Z,56.33
2019-05-03T11:56:37.156Z,56.50
2019-05-03T11:59:05.232Z,56.09
2019-05-03T12:01:35.565Z,55.77
2019-05-03T12:04:01.370Z,56.17
2019-05-03T12:06:27.765Z,57.10
2019-05-03T12:08:55.389Z,57.72
2019-05-03T12:11:21.940Z,56.88
2019-05-03T12:14:01.436Z,57.06
2019-05-03T12:16:23.339Z,56.99
2019-05-03T12:18:52.583Z,56.72
2019-05-03T12:21:14.452Z,56.31
2019-05-03T12:23:41.612Z,56.34
2019-05-03T12:26:12.647Z,56.03
2019-05-03T12:28:36.381Z,56.00
2019-05-03T12:31:04.474Z,54.95
2019-05-03T12:33:31.247Z,54.41
2019-05-03T12:35:58.463Z,54.79
2019-05-03T12:38:25.567Z,54.75
2019-05-03T12:40:51.895Z,55.03
2019-05-03T12:43:18.007Z,55.32
2019-05-03T12:45:44.214Z,54.82
2019-05-03T12:48:10.340Z,55.10
2019-05-03T12:50:36.960Z,54.22
2019-05-03T12:53:04.794Z,54.23
2019-05-03T12:55:31.484Z,53.81
2019-05-03T12:57:57.695Z,53.29
2019-05-03T13:00:34.701Z,53.03
2019-05-03T13:03:04.577Z,52.30
2019-05-03T13:05:30.748Z,51.61
2019-05-03T13:08:01.881Z,51.38
2019-05-03T13:10:28.050Z,51.46
2019-05-03T13:12:55.983Z,50.98
2019-05-03T13:15:24.452Z,49.04
2019-05-03T13:17:50.423Z,49.76
2019-05-03T13:20:16.961Z,48.96
2019-05-03T13:22:45.488Z,47.40
2019-05-03T13:25:11.835Z,44.07
2019-05-03T13:27:38.155Z,43.86
2019-05-03T13:30:06.372Z,43.53
2019-05-03T13:32:32.617Z,43.39
2019-05-03T13:34:58.942Z,43.76
2019-05-03T13:37:25.417Z,43.46
2019-05-03T13:39:51.842Z,43.77
2019-05-03T13:42:18.067Z,43.80
2019-05-03T13:44:44.948Z,43.92
2019-05-03T13:47:11.306Z,43.38
2019-05-03T13:49:37.530Z,43.88
2019-05-03T13:52:05.248Z,44.08
2019-05-03T13:54:31.664Z,43.42
2019-05-03T13:56:57.847Z,45.28
2019-05-03T13:59:24.671Z,44.94
2019-05-03T14:01:51.013Z,45.29
2019-05-03T14:04:17.307Z,44.75
2019-05-03T14:06:44.860Z,45.32
2019-05-03T14:09:11.141Z,45.12
2019-05-03T14:11:37.920Z,45.00
2019-05-03T14:14:04.701Z,45.00
2019-05-03T14:16:31.151Z,44.97
2019-05-03T14:19:00.267Z,45.51
2019-05-03T14:21:31.383Z,45.86
2019-05-03T14:24:10.673Z,46.27
2019-05-03T14:26:37.721Z,46.95
2019-05-03T14:29:05.694Z,47.45
2019-05-03T14:31:32.005Z,48.28
2019-05-03T14:33:58.235Z,48.45
2019-05-03T14:36:25.081Z,48.55
2019-05-03T14:38:51.421Z,48.52
2019-05-03T14:41:17.798Z,48.70
2019-05-03T14:43:44.161Z,49.38
2019-05-03T14:46:10.608Z,49.27
2019-05-03T14:48:36.869Z,49.63
2019-05-03T14:51:05.433Z,49.70
2019-05-03T14:53:31.586Z,49.49
2019-05-03T14:56:07.773Z,50.05
2019-05-03T14:58:38.559Z,49.96
2019-05-03T15:01:18.862Z,50.54
2019-05-03T15:03:45.148Z,50.44
2019-05-03T15:06:11.287Z,50.27
2019-05-03T15:08:37.512Z,49.89
2019-05-03T15:11:05.278Z,49.29
2019-05-03T15:13:31.760Z,48.63
2019-05-03T15:15:57.889Z,48.60
2019-05-03T15:18:25.613Z,49.03
2019-05-03T15:20:51.869Z,49.12
2019-05-03T15:23:18.121Z,48.84
2019-05-03T15:25:45.235Z,48.43
2019-05-03T15:28:11.997Z,48.76
2019-05-03T15:30:38.282Z,48.88
2019-05-03T15:33:05.107Z,49.42
2019-05-03T15:35:31.459Z,49.54
2019-05-03T15:37:57.798Z,49.24
2019-05-03T15:40:25.075Z,49.86
2019-05-03T15:42:56.287Z,49.51
2019-05-03T15:45:39.521Z,50.13
2019-05-03T15:48:07.819Z,49.53
2019-05-03T15:50:35.534Z,49.98
2019-05-03T15:53:02.100Z,50.20
2019-05-03T15:55:28.349Z,50.58
2019-05-03T15:57:55.266Z,50.73
2019-05-03T16:00:22.111Z,51.10
2019-05-03T16:02:48.324Z,51.24
2019-05-03T16:05:15.569Z,51.05
2019-05-03T16:07:41.855Z,51.41
2019-05-03T16:10:08.442Z,51.26
2019-05-03T16:12:34.780Z,51.53
2019-05-03T16:15:01.205Z,51.74
2019-05-03T16:17:27.339Z,51.54
2019-05-03T16:19:55.614Z,51.60
2019-05-03T16:22:21.761Z,51.80
2019-05-03T16:24:47.986Z,51.83
2019-05-03T16:27:22.212Z,51.71
2019-05-03T16:29:48.423Z,52.05
2019-05-03T16:32:15.201Z,52.11
2019-05-03T16:34:41.491Z,52.59
2019-05-03T16:37:07.785Z,52.71
2019-05-03T16:39:35.326Z,52.62
2019-05-03T16:42:04.241Z,52.83
2019-05-03T16:44:32.163Z,52.83
2019-05-03T16:46:58.456Z,52.83
2019-05-03T16:49:24.718Z,52.74
2019-05-03T16:51:50.984Z,52.91
2019-05-03T16:54:17.217Z,52.45
2019-05-03T16:56:44.449Z,52.79
2019-05-03T16:59:11.007Z,53.04
2019-05-03T17:01:37.184Z,52.87
2019-05-03T17:04:14.577Z,52.72
2019-05-03T17:06:42.741Z,52.58
2019-05-03T17:09:14.510Z,52.81
2019-05-03T17:11:42.920Z,53.08
2019-05-03T17:14:09.103Z,53.39
2019-05-03T17:16:35.380Z,53.53
2019-05-03T17:19:01.536Z,53.58
2019-05-03T17:21:28.196Z,53.41
2019-05-03T17:23:55.590Z,53.83
2019-05-03T17:26:21.886Z,53.89
2019-05-03T17:28:48.085Z,53.98
2019-05-03T17:31:15.591Z,54.26
2019-05-03T17:33:51.519Z,54.48
2019-05-03T17:36:12.035Z,54.70
2019-05-03T17:38:38.367Z,54.55
2019-05-03T17:41:25.596Z,54.61
2019-05-03T17:43:54.965Z,54.58
2019-05-03T17:46:21.245Z,54.71
2019-05-03T17:48:47.450Z,54.61
2019-05-03T17:51:35.136Z,54.29
2019-05-03T17:54:19.820Z,54.38
2019-05-03T17:56:55.141Z,54.37
2019-05-03T17:59:24.457Z,54.33
2019-05-03T18:02:09.457Z,54.76
2019-05-03T18:04:55.013Z,54.45
2019-05-03T18:07:26.506Z,54.54
2019-05-03T18:09:55.405Z,54.96
2019-05-03T18:12:21.716Z,54.89
2019-05-03T18:14:48.076Z,55.47
2019-05-03T18:17:14.776Z,56.85
2019-05-03T18:19:41.345Z,56.54
2019-05-03T18:22:07.549Z,56.21
2019-05-03T18:24:35.222Z,55.94
2019-05-03T18:27:01.570Z,56.00
2019-05-03T18:29:27.803Z,56.03
2019-05-03T18:31:55.066Z,56.81
2019-05-03T18:34:22.559Z,57.92
2019-05-03T18:36:49.586Z,58.18
2019-05-03T18:39:15.920Z,57.87
2019-05-03T18:41:42.340Z,57.97
2019-05-03T18:44:10.587Z,57.80
2019-05-03T18:46:38.675Z,58.42
2019-05-03T18:49:05.018Z,58.81
2019-05-03T18:51:31.434Z,57.98
2019-05-03T18:53:57.680Z,57.74
2019-05-03T18:56:25.210Z,57.96
2019-05-03T18:58:51.524Z,58.07
2019-05-03T19:01:17.851Z,58.53
2019-05-03T19:03:46.854Z,58.09
2019-05-03T19:06:13.132Z,58.39
2019-05-03T19:08:41.329Z,58.87
2019-05-03T19:11:12.676Z,59.32
2019-05-03T19:13:52.979Z,59.80
2019-05-03T19:19:46.994Z,59.62
2019-05-03T19:22:15.296Z,59.57
2019-05-03T19:24:41.473Z,59.94
2019-05-03T19:27:08.137Z,59.22
2019-05-03T19:29:34.964Z,58.71
2019-05-03T19:32:01.392Z,59.49
2019-05-03T19:34:27.502Z,58.65
2019-05-03T19:36:54.711Z,58.52
2019-05-03T19:39:21.109Z,58.51
2019-05-03T19:41:47.407Z,58.60
2019-05-03T19:44:15.152Z,58.51
2019-05-03T19:46:41.547Z,58.45
2019-05-03T19:49:07.745Z,58.76
2019-05-03T19:51:34.419Z,58.56
2019-05-03T19:54:02.278Z,58.81
2019-05-03T19:56:28.575Z,59.14
2019-05-03T19:58:56.692Z,59.53
2019-05-03T20:01:27.875Z,59.74
2019-05-03T20:04:11.797Z,59.96
2019-05-03T20:06:54.890Z,60.13
2019-05-03T20:09:25.699Z,60.52
2019-05-03T20:11:51.863Z,60.91
2019-05-03T20:14:18.155Z,61.30
2019-05-03T20:16:44.990Z,61.59
2019-05-03T20:19:19.063Z,61.54
2019-05-03T20:21:39.418Z,61.72
2019-05-03T20:24:05.717Z,61.61
2019-05-03T20:26:32.002Z,61.61
2019-05-03T20:28:58.167Z,61.62
2019-05-03T20:31:25.303Z,61.52
2019-05-03T20:33:51.426Z,61.33
2019-05-03T20:36:17.658Z,61.15
2019-05-03T20:38:44.528Z,60.96
2019-05-03T20:41:10.978Z,60.93
2019-05-03T20:43:56.066Z,60.93
2019-05-03T20:46:29.950Z,60.93
2019-05-03T20:48:58.102Z,60.66
2019-05-03T20:51:25.216Z,60.67
2019-05-03T20:53:51.566Z,60.62
2019-05-03T20:56:17.740Z,60.63
2019-05-03T20:58:44.664Z,60.37
2019-05-03T21:01:10.986Z,60.20
2019-05-03T21:03:37.154Z,60.23
2019-05-03T21:06:04.980Z,60.37
2019-05-03T21:08:31.327Z,60.54
2019-05-03T21:10:57.492Z,60.38
2019-05-03T21:13:25.202Z,60.50
2019-05-03T21:15:53.750Z,60.52
2019-05-03T21:18:40.284Z,60.58
2019-05-03T21:21:17.029Z,60.76
2019-05-03T21:23:45.140Z,61.09
2019-05-03T21:26:13.362Z,61.33
2019-05-03T21:28:39.442Z,62.09
2019-05-03T21:31:05.835Z,62.50
2019-05-03T21:33:32.248Z,63.12
2019-05-03T21:35:58.353Z,63.19
2019-05-03T21:38:24.674Z,63.12
2019-05-03T21:40:50.913Z,62.93
2019-05-03T21:43:17.154Z,62.63
2019-05-03T21:45:54.500Z,62.45
2019-05-03T21:48:22.678Z,62.72
2019-05-03T21:50:48.885Z,63.15
2019-05-03T21:53:15.175Z,63.20
2019-05-03T21:55:41.345Z,63.04
2019-05-03T21:58:07.541Z,63.09
2019-05-03T22:00:39.102Z,63.01
2019-05-03T22:03:05.693Z,62.77
2019-05-03T22:05:33.113Z,62.88
2019-05-03T22:07:59.891Z,63.00
2019-05-03T22:10:26.145Z,63.11
2019-05-03T22:12:54.330Z,63.38
2019-05-03T22:15:27.873Z,63.93
2019-05-03T22:18:15.192Z,64.25
2019-05-03T22:20:45.346Z,65.81
2019-05-03T22:23:14.997Z,66.20
2019-05-03T22:25:43.395Z,67.26
2019-05-03T22:28:09.697Z,67.74
2019-05-03T22:30:35.995Z,69.01
2019-05-03T22:33:02.378Z,69.13
2019-05-03T22:35:28.683Z,69.11
2019-05-03T22:37:55.144Z,69.57
2019-05-03T22:40:21.409Z,69.48
2019-05-03T22:42:47.788Z,69.49
2019-05-03T22:45:14.239Z,69.67
2019-05-03T22:47:40.543Z,69.93
2019-05-03T22:50:07.953Z,70.04
2019-05-03T22:52:34.977Z,69.52
2019-05-03T22:55:02.253Z,69.90
2019-05-03T22:57:29.638Z,68.79
2019-05-03T22:59:55.859Z,68.14
2019-05-03T23:02:22.257Z,68.90
2019-05-03T23:04:48.630Z,68.64
2019-05-03T23:07:15.058Z,68.18
2019-05-03T23:09:41.355Z,68.55
2019-05-03T23:12:07.630Z,68.29
2019-05-03T23:14:34.705Z,68.15
2019-05-03T23:17:01.093Z,68.01
2019-05-03T23:19:28.432Z,68.05
2019-05-03T23:22:11.966Z,68.27
2019-05-03T23:24:38.131Z,68.30
2019-05-03T23:27:05.072Z,67.89
2019-05-03T23:29:31.564Z,68.26
2019-05-03T23:31:57.835Z,67.97
2019-05-03T23:34:24.727Z,68.26
2019-05-03T23:36:51.127Z,68.09
2019-05-03T23:39:17.233Z,68.55
2019-05-03T23:41:43.465Z,69.08
2019-05-03T23:44:09.620Z,68.34
2019-05-03T23:46:40.784Z,68.05
2019-05-03T23:49:06.853Z,68.10
2019-05-03T23:51:44.410Z,68.44
2019-05-03T23:54:10.617Z,68.54
2019-05-03T23:56:36.924Z,69.01
2019-05-03T23:59:05.361Z,68.89
